Station History


Daily Summary for January 9, 2012 Units:  English    Metric   Both
« Previous Day
Next Day »
Daily Weekly Monthly Yearly Custom
  High: Low: Average:
Temperature: 67.3 °F 31.5 °F 45.8 °F
Dew Point: 45.0 °F 30.0 °F 37.4 °F
Humidity: 97% 36% 76%
Wind Speed: 4.0mph 0.0mph 2.2mph
Wind Gust: 4.0mph - -
Wind- - WSW
Pressure: 30.27 in 30.16 in -
Precipitation: 0.00 in    
Historical Graphs
 
 
Tabular Data for January 9, 2012
Time Temperature Dew Point Pressure Wind Wind Speed Wind Gust Humidity Rainfall Rate (Hourly)
00:02 38.2 °F 36.1 °F 30.23 in Calm     92% 0.00 in
00:07 38.2 °F 36.1 °F 30.24 in Calm     92% 0.00 in
00:12 38.2 °F 36.1 °F 30.23 in Calm     92% 0.00 in
00:17 38.1 °F 36.0 °F 30.23 in Calm     92% 0.00 in
00:22 38.2 °F 35.8 °F 30.24 in Calm     91% 0.00 in
00:27 38.0 °F 35.6 °F 30.24 in Calm     91% 0.00 in
00:32 38.2 °F 36.1 °F 30.24 in Calm     92% 0.00 in
00:37 38.1 °F 35.7 °F 30.24 in Calm     91% 0.00 in
00:42 37.8 °F 35.1 °F 30.24 in Calm     90% 0.00 in
00:47 37.8 °F 35.4 °F 30.23 in Calm     91% 0.00 in
00:52 37.8 °F 35.4 °F 30.23 in Calm     91% 0.00 in
00:57 37.6 °F 35.2 °F 30.24 in Calm     91% 0.00 in
01:02 37.4 °F 35.0 °F 30.24 in Calm     91% 0.00 in
01:07 37.3 °F 34.9 °F 30.24 in Calm     91% 0.00 in
01:12 37.2 °F 34.8 °F 30.24 in Calm     91% 0.00 in
01:17 37.0 °F 34.6 °F 30.24 in Calm     91% 0.00 in
01:22 37.0 °F 34.9 °F 30.24 in Calm     92% 0.00 in
01:27 37.0 °F 34.9 °F 30.24 in Calm     92% 0.00 in
01:32 36.9 °F 34.8 °F 30.24 in Calm     92% 0.00 in
01:37 36.7 °F 34.6 °F 30.24 in Calm     92% 0.00 in
01:42 36.6 °F 34.5 °F 30.24 in Calm     92% 0.00 in
01:47 36.4 °F 34.0 °F 30.24 in Calm     91% 0.00 in
01:52 36.1 °F 33.7 °F 30.24 in Calm     91% 0.00 in
01:57 35.9 °F 33.8 °F 30.24 in Calm     92% 0.00 in
02:02 35.7 °F 33.3 °F 30.24 in Calm     91% 0.00 in
02:07 35.5 °F 33.1 °F 30.25 in Calm     91% 0.00 in
02:12 35.2 °F 33.1 °F 30.25 in Calm     92% 0.00 in
02:17 35.1 °F 33.0 °F 30.25 in Calm     92% 0.00 in
02:22 35.1 °F 33.3 °F 30.25 in Calm     93% 0.00 in
02:27 35.0 °F 32.9 °F 30.25 in Calm     92% 0.00 in
02:32 34.9 °F 32.8 °F 30.25 in Calm     92% 0.00 in
02:38 34.8 °F 33.0 °F 30.24 in Calm     93% 0.00 in
02:43 34.9 °F 33.1 °F 30.24 in Calm     93% 0.00 in
02:48 34.8 °F 33.0 °F 30.24 in Calm     93% 0.00 in
02:53 34.8 °F 33.0 °F 30.24 in Calm     93% 0.00 in
02:58 34.6 °F 32.8 °F 30.24 in Calm     93% 0.00 in
03:03 34.8 °F 33.2 °F 30.24 in Calm     94% 0.00 in
03:08 35.0 °F 33.4 °F 30.24 in Calm     94% 0.00 in
03:13 35.2 °F 33.6 °F 30.24 in Calm     94% 0.00 in
03:18 35.4 °F 33.8 °F 30.24 in Calm     94% 0.00 in
03:23 35.5 °F 33.7 °F 30.24 in Calm     93% 0.00 in
03:28 35.2 °F 33.4 °F 30.24 in Calm     93% 0.00 in
03:33 34.9 °F 33.1 °F 30.24 in Calm     93% 0.00 in
03:38 34.7 °F 32.9 °F 30.24 in Calm     93% 0.00 in
03:43 34.5 °F 32.7 °F 30.24 in Calm     93% 0.00 in
03:48 34.6 °F 33.1 °F 30.24 in Calm     94% 0.00 in
03:53 34.7 °F 33.2 °F 30.24 in Calm     94% 0.00 in
03:58 34.6 °F 33.1 °F 30.24 in Calm     94% 0.00 in
04:03 34.5 °F 32.7 °F 30.24 in Calm     93% 0.00 in
04:08 34.3 °F 32.5 °F 30.24 in Calm     93% 0.00 in
04:13 34.2 °F 32.4 °F 30.24 in Calm     93% 0.00 in
04:18 34.0 °F 32.2 °F 30.24 in Calm     93% 0.00 in
04:23 34.0 °F 32.5 °F 30.24 in Calm     94% 0.00 in
04:28 34.0 °F 32.5 °F 30.24 in Calm     94% 0.00 in
04:33 34.0 °F 32.5 °F 30.24 in Calm     94% 0.00 in
04:38 33.9 °F 32.4 °F 30.25 in Calm     94% 0.00 in
04:43 33.8 °F 32.3 °F 30.25 in Calm     94% 0.00 in
04:48 33.6 °F 31.8 °F 30.25 in Calm     93% 0.00 in
04:53 33.3 °F 31.5 °F 30.25 in Calm     93% 0.00 in
04:58 33.1 °F 31.3 °F 30.25 in Calm     93% 0.00 in
05:03 33.1 °F 31.6 °F 30.25 in Calm     94% 0.00 in
05:08 33.2 °F 31.7 °F 30.26 in Calm     94% 0.00 in
05:13 33.3 °F 31.8 °F 30.26 in Calm     94% 0.00 in
05:18 33.3 °F 31.8 °F 30.26 in Calm     94% 0.00 in
05:23 33.3 °F 31.8 °F 30.27 in Calm     94% 0.00 in
05:28 33.3 °F 31.8 °F 30.27 in Calm     94% 0.00 in
05:33 33.2 °F 31.7 °F 30.27 in Calm     94% 0.00 in
05:38 33.2 °F 31.7 °F 30.27 in Calm     94% 0.00 in
05:43 33.0 °F 31.5 °F 30.26 in Calm     94% 0.00 in
05:48 33.0 °F 31.5 °F 30.26 in Calm     94% 0.00 in
05:53 33.3 °F 32.0 °F 30.26 in Calm     95% 0.00 in
05:58 33.5 °F 32.2 °F 30.26 in Calm     95% 0.00 in
06:03 33.5 °F 32.2 °F 30.26 in Calm     95% 0.00 in
06:08 33.5 °F 32.2 °F 30.26 in Calm     95% 0.00 in
06:13 33.4 °F 31.9 °F 30.26 in Calm     94% 0.00 in
06:18 33.3 °F 31.8 °F 30.26 in Calm     94% 0.00 in
06:23 33.1 °F 31.6 °F 30.26 in Calm     94% 0.00 in
06:28 33.0 °F 31.5 °F 30.27 in Calm     94% 0.00 in
06:33 32.8 °F 31.3 °F 30.27 in Calm     94% 0.00 in
06:38 32.7 °F 31.2 °F 30.27 in Calm     94% 0.00 in
06:43 32.5 °F 31.0 °F 30.27 in Calm     94% 0.00 in
06:48 32.4 °F 30.9 °F 30.27 in Calm     94% 0.00 in
06:53 32.3 °F 30.8 °F 30.26 in Calm     94% 0.00 in
06:58 32.1 °F 30.6 °F 30.26 in Calm     94% 0.00 in
07:03 32.0 °F 30.5 °F 30.26 in Calm     94% 0.00 in
07:08 31.8 °F 30.3 °F 30.26 in Calm     94% 0.00 in
07:13 31.7 °F 30.2 °F 30.26 in Calm     94% 0.00 in
07:18 31.6 °F 30.1 °F 30.26 in Calm     94% 0.00 in
07:23 31.5 °F 30.0 °F 30.26 in Calm     94% 0.00 in
07:28 31.6 °F 30.1 °F 30.26 in Calm     94% 0.00 in
07:33 31.9 °F 30.6 °F 30.26 in Calm     95% 0.00 in
07:38 32.1 °F 30.8 °F 30.26 in Calm     95% 0.00 in
07:43 32.3 °F 31.0 °F 30.25 in Calm     95% 0.00 in
07:48 32.4 °F 31.1 °F 30.25 in Calm     95% 0.00 in
07:53 32.8 °F 31.8 °F 30.25 in Calm     96% 0.00 in
07:58 33.3 °F 32.3 °F 30.25 in Calm     96% 0.00 in
08:03 33.9 °F 32.9 °F 30.25 in Calm     96% 0.00 in
08:09 34.5 °F 33.7 °F 30.25 in Calm     97% 0.00 in
08:14 34.9 °F 34.1 °F 30.25 in Calm     97% 0.00 in
08:19 35.3 °F 34.5 °F 30.25 in Calm     97% 0.00 in
08:24 35.7 °F 34.9 °F 30.25 in Calm     97% 0.00 in
08:29 36.2 °F 35.4 °F 30.25 in Calm     97% 0.00 in
08:34 37.4 °F 36.6 °F 30.25 in Calm     97% 0.00 in
08:39 38.2 °F 37.4 °F 30.25 in Calm     97% 0.00 in
08:44 38.7 °F 37.9 °F 30.25 in Calm     97% 0.00 in
08:49 39.2 °F 38.4 °F 30.25 in Calm     97% 0.00 in
08:54 39.7 °F 38.9 °F 30.26 in Calm     97% 0.00 in
08:59 40.4 °F 39.4 °F 30.26 in Calm     96% 0.00 in
09:04 41.2 °F 39.6 °F 30.26 in Calm     94% 0.00 in
09:09 41.9 °F 40.0 °F 30.26 in Calm     93% 0.00 in
09:14 42.8 °F 39.8 °F 30.26 in Calm     89% 0.00 in
09:19 43.7 °F 40.1 °F 30.26 in Calm     87% 0.00 in
09:24 44.6 °F 40.1 °F 30.26 in Calm     84% 0.00 in
09:29 45.4 °F 40.2 °F 30.26 in Calm     82% 0.00 in
09:34 46.0 °F 40.5 °F 30.26 in Calm     81% 0.00 in
09:39 46.6 °F 40.4 °F 30.26 in Calm     79% 0.00 in
09:44 47.2 °F 41.0 °F 30.26 in Calm     79% 0.00 in
09:49 47.8 °F 41.3 °F 30.26 in Calm     78% 0.00 in
09:54 48.3 °F 41.4 °F 30.27 in Calm     77% 0.00 in
09:59 48.8 °F 41.6 °F 30.27 in NNW 1.2 mph   76% 0.00 in
10:04 49.1 °F 41.5 °F 30.27 in NNW 1.2 mph   75% 0.00 in
10:09 49.4 °F 41.5 °F 30.27 in SW 1.2 mph   74% 0.00 in
10:14 49.8 °F 41.8 °F 30.26 in Calm     74% 0.00 in
10:19 50.3 °F 42.0 °F 30.26 in WNW 1.2 mph 1.2 mph 73% 0.00 in
10:24 50.6 °F 41.9 °F 30.26 in Calm     72% 0.00 in
10:29 51.2 °F 42.5 °F 30.26 in WNW 1.2 mph   72% 0.00 in
10:34 51.7 °F 42.2 °F 30.26 in Calm     70% 0.00 in
10:39 51.9 °F 42.0 °F 30.25 in NE 1.2 mph 1.2 mph 69% 0.00 in
10:44 52.2 °F 42.3 °F 30.25 in East 1.2 mph 1.2 mph 69% 0.00 in
10:49 52.6 °F 41.9 °F 30.25 in East 1.2 mph 1.2 mph 67% 0.00 in
10:54 52.8 °F 41.7 °F 30.25 in ENE 1.2 mph 1.2 mph 66% 0.00 in
10:59 53.0 °F 41.5 °F 30.24 in ENE 1.2 mph 1.2 mph 65% 0.00 in
11:04 53.4 °F 41.9 °F 30.24 in East 1.0 mph   65% 0.00 in
11:09 53.6 °F 41.7 °F 30.24 in North 1.2 mph 1.2 mph 64% 0.00 in
11:14 54.2 °F 42.3 °F 30.24 in Calm     64% 0.00 in
11:19 54.8 °F 42.9 °F 30.23 in West 1.2 mph 1.2 mph 64% 0.00 in
11:24 55.4 °F 43.0 °F 30.23 in Calm     63% 0.00 in
11:29 55.7 °F 42.9 °F 30.23 in Calm     62% 0.00 in
11:34 56.0 °F 42.7 °F 30.22 in Calm     61% 0.00 in
11:39 56.7 °F 43.4 °F 30.22 in Calm   0.3 mph 61% 0.00 in
11:44 57.4 °F 43.2 °F 30.22 in NNW 1.2 mph 1.2 mph 59% 0.00 in
11:50 57.7 °F 42.6 °F 30.21 in West 3.0 mph 3.0 mph 57% 0.00 in
11:55 58.2 °F 43.0 °F 30.21 in West 1.2 mph 1.2 mph 57% 0.00 in
12:00 58.8 °F 43.6 °F 30.21 in WSW 2.3 mph 2.3 mph 57% 0.00 in
12:05 59.3 °F 43.6 °F 30.20 in NNW 2.3 mph 2.3 mph 56% 0.00 in
12:10 59.7 °F 43.5 °F 30.20 in Calm   0.3 mph 55% 0.00 in
12:17 60.3 °F 44.1 °F 30.20 in SE 3.5 mph 3.5 mph 55% 0.00 in
12:22 60.8 °F 44.0 °F 30.20 in NW 3.5 mph 3.5 mph 54% 0.00 in
12:27 61.3 °F 44.5 °F 30.19 in North 1.2 mph 1.2 mph 54% 0.00 in
12:32 61.8 °F 44.5 °F 30.19 in North 3.0 mph 3.0 mph 53% 0.00 in
12:38 62.1 °F 43.7 °F 30.19 in North 3.5 mph 3.5 mph 51% 0.00 in
12:43 62.4 °F 43.5 °F 30.19 in North 3.5 mph 3.5 mph 50% 0.00 in
12:48 62.7 °F 44.3 °F 30.18 in NW 2.3 mph 2.3 mph 51% 0.00 in
12:53 62.9 °F 45.0 °F 30.18 in NNW 2.0 mph 2.0 mph 52% 0.00 in
12:58 63.2 °F 44.8 °F 30.18 in WNW 1.2 mph 1.2 mph 51% 0.00 in
13:03 63.5 °F 44.0 °F 30.18 in WSW 1.2 mph 1.2 mph 49% 0.00 in
13:08 63.7 °F 44.7 °F 30.18 in North 4.0 mph 4.0 mph 50% 0.00 in
13:13 63.7 °F 43.6 °F 30.18 in WNW 2.3 mph 2.3 mph 48% 0.00 in
13:18 64.0 °F 43.9 °F 30.17 in NNW 3.5 mph 3.5 mph 48% 0.00 in
13:23 64.3 °F 43.6 °F 30.17 in NNE 3.5 mph 3.5 mph 47% 0.00 in
13:28 64.4 °F 43.2 °F 30.17 in WSW 2.3 mph 2.3 mph 46% 0.00 in
13:33 64.7 °F 42.9 °F 30.17 in NNW 1.2 mph 1.2 mph 45% 0.00 in
13:38 65.0 °F 41.9 °F 30.17 in NNW 3.5 mph 3.5 mph 43% 0.00 in
13:43 65.1 °F 42.6 °F 30.17 in NNE 2.3 mph 2.3 mph 44% 0.00 in
13:48 65.5 °F 43.0 °F 30.17 in North 3.5 mph 3.5 mph 44% 0.00 in
13:53 66.0 °F 41.6 °F 30.17 in NE 1.2 mph 1.2 mph 41% 0.00 in
13:58 65.9 °F 40.9 °F 30.17 in WNW 3.5 mph 3.5 mph 40% 0.00 in
14:03 65.8 °F 41.4 °F 30.17 in North 1.2 mph 1.2 mph 41% 0.00 in
14:08 65.9 °F 40.9 °F 30.16 in NNE 1.2 mph   40% 0.00 in
14:13 66.1 °F 41.7 °F 30.16 in WNW 3.5 mph 3.5 mph 41% 0.00 in
14:18 66.2 °F 41.2 °F 30.16 in North 3.5 mph 3.5 mph 40% 0.00 in
14:23 66.3 °F 40.6 °F 30.16 in West 3.5 mph 3.5 mph 39% 0.00 in
14:28 66.5 °F 40.8 °F 30.16 in WNW 1.2 mph 1.2 mph 39% 0.00 in
14:33 66.8 °F 40.4 °F 30.16 in NNW 3.5 mph 3.5 mph 38% 0.00 in
14:38 67.0 °F 41.2 °F 30.16 in NW 1.2 mph 1.2 mph 39% 0.00 in
14:43 67.2 °F 40.7 °F 30.16 in NNW 3.5 mph 3.5 mph 38% 0.00 in
14:48 67.1 °F 39.9 °F 30.17 in NNW 3.5 mph 3.5 mph 37% 0.00 in
14:53 67.2 °F 40.0 °F 30.16 in North 3.5 mph 3.5 mph 37% 0.00 in
14:58 67.3 °F 40.8 °F 30.16 in NNW 2.3 mph 2.3 mph 38% 0.00 in
15:03 67.3 °F 40.1 °F 30.16 in NW 2.3 mph 2.3 mph 37% 0.00 in
15:08 67.2 °F 39.3 °F 30.16 in NW 3.5 mph 3.5 mph 36% 0.00 in
15:13 66.9 °F 39.1 °F 30.16 in NNW 3.5 mph 3.5 mph 36% 0.00 in
15:18 66.9 °F 39.1 °F 30.16 in NW 3.5 mph 3.5 mph 36% 0.00 in
15:23 66.7 °F 39.6 °F 30.17 in NNE 2.3 mph 2.3 mph 37% 0.00 in
15:28 66.4 °F 40.0 °F 30.17 in NNE 3.0 mph 3.0 mph 38% 0.00 in
15:33 66.2 °F 39.8 °F 30.17 in NNW 2.3 mph 2.3 mph 38% 0.00 in
15:38 66.2 °F 39.1 °F 30.17 in NNW 2.3 mph 2.3 mph 37% 0.00 in
15:43 66.2 °F 39.8 °F 30.17 in NNE 2.3 mph 2.3 mph 38% 0.00 in
15:48 66.1 °F 39.7 °F 30.17 in West 2.3 mph 2.3 mph 38% 0.00 in
15:53 65.7 °F 39.4 °F 30.17 in NW 1.2 mph 1.2 mph 38% 0.00 in
15:58 65.2 °F 39.6 °F 30.16 in NW 2.3 mph 2.3 mph 39% 0.00 in
16:03 64.9 °F 40.0 °F 30.16 in NW 1.2 mph 1.2 mph 40% 0.00 in
16:08 64.6 °F 39.7 °F 30.16 in Calm     40% 0.00 in
16:13 64.3 °F 40.1 °F 30.16 in NNW 1.2 mph   41% 0.00 in
16:18 64.0 °F 40.4 °F 30.16 in NNW 1.2 mph 1.2 mph 42% 0.00 in
16:23 63.7 °F 40.8 °F 30.16 in Calm     43% 0.00 in
16:28 63.3 °F 40.4 °F 30.16 in Calm     43% 0.00 in
16:33 62.8 °F 40.5 °F 30.16 in Calm     44% 0.00 in
16:38 62.3 °F 40.1 °F 30.16 in Calm     44% 0.00 in
16:43 61.7 °F 40.1 °F 30.16 in Calm     45% 0.00 in
16:48 61.2 °F 40.2 °F 30.16 in Calm     46% 0.00 in
16:53 60.7 °F 40.3 °F 30.16 in Calm     47% 0.00 in
16:58 59.9 °F 40.1 °F 30.16 in Calm     48% 0.00 in
17:03 59.0 °F 40.9 °F 30.16 in Calm     51% 0.00 in
17:08 58.0 °F 41.0 °F 30.16 in Calm     53% 0.00 in
17:13 57.0 °F 40.5 °F 30.16 in Calm     54% 0.00 in
17:18 56.3 °F 40.3 °F 30.16 in Calm     55% 0.00 in
17:23 55.7 °F 40.7 °F 30.16 in Calm     57% 0.00 in
17:28 55.0 °F 40.5 °F 30.16 in Calm     58% 0.00 in
17:33 54.3 °F 40.3 °F 30.16 in Calm     59% 0.00 in
17:38 53.5 °F 39.9 °F 30.16 in Calm     60% 0.00 in
17:43 52.8 °F 40.1 °F 30.17 in Calm     62% 0.00 in
17:48 52.2 °F 40.0 °F 30.16 in Calm     63% 0.00 in
17:53 51.7 °F 40.3 °F 30.16 in Calm     65% 0.00 in
17:58 51.1 °F 40.1 °F 30.17 in Calm     66% 0.00 in
18:03 50.7 °F 39.7 °F 30.17 in Calm     66% 0.00 in
18:08 50.3 °F 39.8 °F 30.17 in Calm     67% 0.00 in
18:13 49.9 °F 40.1 °F 30.17 in Calm     69% 0.00 in
18:18 49.5 °F 40.1 °F 30.17 in Calm     70% 0.00 in
18:23 49.2 °F 39.5 °F 30.17 in Calm     69% 0.00 in
18:28 48.9 °F 39.9 °F 30.17 in Calm     71% 0.00 in
18:33 48.6 °F 39.3 °F 30.17 in Calm     70% 0.00 in
18:38 48.3 °F 39.7 °F 30.17 in Calm     72% 0.00 in
18:43 47.9 °F 39.3 °F 30.17 in Calm     72% 0.00 in
18:48 47.5 °F 38.9 °F 30.17 in Calm     72% 0.00 in
18:53 47.1 °F 39.2 °F 30.17 in Calm     74% 0.00 in
18:58 46.8 °F 38.9 °F 30.18 in Calm     74% 0.00 in
19:03 46.5 °F 39.0 °F 30.18 in Calm     75% 0.00 in
19:08 46.2 °F 39.1 °F 30.18 in Calm     76% 0.00 in
19:13 46.0 °F 39.2 °F 30.18 in Calm     77% 0.00 in
19:18 45.9 °F 39.1 °F 30.18 in Calm     77% 0.00 in
19:23 45.7 °F 39.2 °F 30.18 in Calm     78% 0.00 in
19:28 45.4 °F 38.9 °F 30.18 in Calm     78% 0.00 in
19:33 45.1 °F 38.6 °F 30.18 in Calm     78% 0.00 in
19:38 44.9 °F 38.8 °F 30.18 in Calm     79% 0.00 in
19:43 44.9 °F 39.1 °F 30.18 in Calm     80% 0.00 in
19:48 44.7 °F 38.9 °F 30.18 in Calm     80% 0.00 in
19:53 44.5 °F 38.7 °F 30.18 in Calm     80% 0.00 in
19:58 44.4 °F 38.6 °F 30.18 in Calm     80% 0.00 in
20:03 44.1 °F 38.3 °F 30.18 in Calm     80% 0.00 in
20:08 43.9 °F 38.4 °F 30.18 in Calm     81% 0.00 in
20:13 43.7 °F 38.3 °F 30.18 in Calm     81% 0.00 in
20:18 43.4 °F 38.3 °F 30.18 in Calm     82% 0.00 in
20:23 43.1 °F 38.0 °F 30.18 in Calm     82% 0.00 in
20:28 42.9 °F 38.1 °F 30.19 in Calm     83% 0.00 in
20:33 42.8 °F 38.0 °F 30.19 in Calm     83% 0.00 in
20:38 42.5 °F 38.0 °F 30.19 in Calm     84% 0.00 in
20:43 42.4 °F 37.9 °F 30.19 in Calm     84% 0.00 in
20:48 42.4 °F 37.9 °F 30.20 in Calm     84% 0.00 in
20:53 42.2 °F 37.7 °F 30.19 in Calm     84% 0.00 in
20:58 42.0 °F 37.5 °F 30.20 in Calm     84% 0.00 in
21:00 42.0 °F 37.5 °F 30.20 in Calm     84% 0.00 in
21:05 41.8 °F 37.6 °F 30.19 in Calm     85% 0.00 in
21:10 41.6 °F 37.4 °F 30.20 in Calm     85% 0.00 in
21:15 41.6 °F 37.7 °F 30.19 in Calm     86% 0.00 in
21:20 41.7 °F 37.8 °F 30.19 in Calm     86% 0.00 in
21:25 41.8 °F 37.9 °F 30.19 in Calm     86% 0.00 in
21:30 41.7 °F 37.5 °F 30.19 in Calm     85% 0.00 in
21:35 41.6 °F 37.4 °F 30.19 in Calm     85% 0.00 in
21:40 41.4 °F 37.2 °F 30.19 in Calm     85% 0.00 in
21:45 41.3 °F 37.1 °F 30.19 in Calm     85% 0.00 in
21:50 41.3 °F 37.1 °F 30.19 in Calm     85% 0.00 in
21:55 41.3 °F 37.4 °F 30.19 in Calm     86% 0.00 in
22:00 41.2 °F 37.3 °F 30.19 in Calm     86% 0.00 in
22:05 41.4 °F 37.2 °F 30.19 in Calm     85% 0.00 in
22:11 41.4 °F 37.2 °F 30.19 in Calm     85% 0.00 in
22:16 41.2 °F 36.7 °F 30.18 in Calm     84% 0.00 in
22:21 40.8 °F 36.6 °F 30.18 in Calm     85% 0.00 in
22:26 40.6 °F 36.4 °F 30.18 in Calm     85% 0.00 in
22:31 40.3 °F 36.1 °F 30.18 in Calm     85% 0.00 in
22:36 40.1 °F 36.2 °F 30.18 in Calm     86% 0.00 in
22:41 39.9 °F 36.1 °F 30.18 in Calm     86% 0.00 in
22:46 39.7 °F 36.1 °F 30.18 in Calm     87% 0.00 in
22:51 39.7 °F 36.4 °F 30.18 in Calm     88% 0.00 in
22:56 39.6 °F 36.0 °F 30.17 in Calm     87% 0.00 in
23:01 39.5 °F 36.2 °F 30.17 in Calm     88% 0.00 in
23:06 39.4 °F 36.1 °F 30.17 in Calm     88% 0.00 in
23:11 39.2 °F 35.9 °F 30.17 in Calm     88% 0.00 in
23:16 39.0 °F 35.7 °F 30.17 in Calm     88% 0.00 in
23:21 38.9 °F 35.6 °F 30.17 in Calm     88% 0.00 in
23:26 39.1 °F 36.1 °F 30.17 in Calm     89% 0.00 in
23:31 39.0 °F 36.0 °F 30.17 in Calm     89% 0.00 in
23:36 38.9 °F 35.9 °F 30.17 in Calm     89% 0.00 in
23:41 38.8 °F 35.8 °F 30.17 in Calm     89% 0.00 in
23:46 38.9 °F 35.9 °F 30.17 in Calm     89% 0.00 in
23:51 38.9 °F 35.6 °F 30.17 in Calm     88% 0.00 in
23:56 38.7 °F 35.5 °F 30.17 in Calm     88% 0.00 in
Compliments of Weather Underground